sim
Sign-in with your pilot id or email,
or register
Callsign
Passwort

Schedule Details

Flight Number: GEC8370
Departure: Frankfurt Airport (EDDF) at 16:35
Arrival: Mumbai Chhatrapati Shivaji International Airport (VABB) at 00:35
Route: Lufthansa Cargo Cargo Schedule. Enter filed route here before submitting Pirep.

Weather Information
Getting current METAR information for EDDF 160020Z 20004KT 160V220 9999 -RA FEW023 BKN048 08/07 Q1010 NOSIG
Getting current METAR information for VABB 160030Z 00000KT 2500 HZ NSC 24/19 Q1012 NOSIG

Schedule Frequency

Route Map